This is the latest recevied weather packets stored in our database for station/object E24OWX-1. If no packets are shown the sender has not sent any weather packets the latest 10 day(s).
| Time | Temp. | Humidity | Pressure | Rain* | Wind** | Luminosity | Snow |
|---|---|---|---|---|---|---|---|
| 1777544073 | 37.22° C | 79% | 1004 hPa | - | - | 0 W/m² | - |
| 1777543151 | 37.22° C | 76% | 1004 hPa | - | - | 0 W/m² | - |
| 1777542229 | 37.78° C | 72% | 1004 hPa | - | - | 0 W/m² | - |
| 1777541308 | 37.78° C | 73% | 1003 hPa | - | - | 0 W/m² | - |
| 1777540385 | 37.78° C | 71% | 1003 hPa | - | - | 0 W/m² | - |
| 1777539464 | 38.33° C | 67% | 1003 hPa | - | - | 0 W/m² | - |
| 1777538541 | 38.89° C | 66% | 1004 hPa | - | - | 0 W/m² | - |
| 1777537619 | 38.89° C | 63% | 1004 hPa | - | - | 0 W/m² | - |
| 1777536697 | 38.33° C | 64% | 1004 hPa | - | - | 0 W/m² | - |
| 1777535775 | 39.44° C | 62% | 1004 hPa | - | - | 0 W/m² | - |
| 1777534853 | 38.89° C | 65% | 1005 hPa | - | - | 0 W/m² | - |
| 1777533931 | 38.89° C | 63% | 1006 hPa | - | - | 0 W/m² | - |
| 1777533010 | 38.89° C | 65% | 1006 hPa | - | - | 0 W/m² | - |
| 1777532087 | 38.89° C | 68% | 1006 hPa | - | - | 0 W/m² | - |
| 1777531165 | 38.33° C | 72% | 1006 hPa | - | - | 0 W/m² | - |
| 1777530243 | 37.78° C | 70% | 1007 hPa | - | - | 0 W/m² | - |
| 1777529321 | 37.78° C | 71% | 1007 hPa | - | - | 0 W/m² | - |
| 1777528399 | 38.33° C | 68% | 1007 hPa | - | - | 0 W/m² | - |
| 1777527477 | 38.89° C | 74% | 1008 hPa | - | - | 0 W/m² | - |
| 1777526555 | 38.33° C | 75% | 1008 hPa | - | - | 0 W/m² | - |
| 1777525633 | 38.33° C | 80% | 1008 hPa | - | - | 0 W/m² | - |
| 1777524711 | 37.78° C | 81% | 1008 hPa | - | - | 0 W/m² | - |
| 1777523789 | 37.22° C | 87% | 1009 hPa | - | - | 0 W/m² | - |
| 1777522867 | 35.56° C | 93% | 1009 hPa | - | - | 0 W/m² | - |
| 1777521945 | 37.22° C | 91% | 1009 hPa | - | - | 0 W/m² | - |
* Rain since midnight (hover to see other rain measurements)
** Current wind speed in m/s (hover to see current wind gust speed)